createdAt,value
2019-04-16T00:00:00.460Z,8.90
2019-04-16T00:01:00.506Z,9.10
2019-04-16T00:02:00.282Z,8.80
2019-04-16T00:03:00.235Z,9.20
2019-04-16T00:04:00.220Z,8.80
2019-04-16T00:05:00.211Z,9.00
2019-04-16T00:06:00.207Z,9.10
2019-04-16T00:07:00.211Z,8.60
2019-04-16T00:08:00.172Z,8.90
2019-04-16T00:09:00.163Z,9.50
2019-04-16T00:10:00.151Z,9.30
2019-04-16T00:11:00.143Z,9.10
2019-04-16T00:12:00.157Z,8.30
2019-04-16T00:13:00.119Z,8.80
2019-04-16T00:14:03.026Z,8.60
2019-04-16T00:15:00.097Z,8.90
2019-04-16T00:16:00.087Z,8.70
2019-04-16T00:17:00.106Z,8.40
2019-04-16T00:18:00.149Z,8.70
2019-04-16T00:19:04.145Z,8.10
2019-04-16T00:20:05.669Z,9.00
2019-04-16T00:21:01.030Z,8.50
2019-04-16T00:22:00.043Z,8.70
2019-04-16T00:23:00.005Z,9.50
2019-04-16T00:23:59.996Z,9.40
2019-04-16T00:24:59.984Z,8.70
2019-04-16T00:25:59.971Z,8.60
2019-04-16T00:27:00.112Z,9.30
2019-04-16T00:28:00.835Z,9.00
2019-04-16T00:29:02.035Z,8.70
2019-04-16T00:30:03.873Z,9.10
2019-04-16T00:31:01.024Z,8.80
2019-04-16T00:31:59.909Z,9.10
2019-04-16T00:32:59.925Z,8.90
2019-04-16T00:33:59.890Z,8.90
2019-04-16T00:34:59.876Z,9.70
2019-04-16T00:35:59.864Z,8.60
2019-04-16T00:36:59.864Z,9.20
2019-04-16T00:37:59.860Z,9.40
2019-04-16T00:38:59.826Z,9.00
2019-04-16T00:39:59.818Z,9.80
2019-04-16T00:41:01.087Z,8.90
2019-04-16T00:41:59.790Z,10.30
2019-04-16T00:42:59.812Z,8.90
2019-04-16T00:43:59.770Z,9.40
2019-04-16T00:44:59.762Z,9.80
2019-04-16T00:45:59.748Z,9.00
2019-04-16T00:46:59.736Z,9.10
2019-04-16T00:47:59.767Z,9.40
2019-04-16T00:48:59.712Z,9.10
2019-04-16T00:50:00.074Z,9.30
2019-04-16T00:50:59.882Z,9.40
2019-04-16T00:51:59.883Z,9.50
2019-04-16T00:52:59.890Z,9.60
2019-04-16T00:53:59.655Z,9.20
2019-04-16T00:54:59.645Z,9.20
2019-04-16T00:55:59.633Z,9.50
2019-04-16T00:56:59.620Z,9.10
2019-04-16T00:57:59.617Z,9.20
2019-04-16T00:58:59.624Z,9.10
2019-04-16T00:59:59.599Z,8.90
2019-04-16T01:00:59.653Z,9.00
2019-04-16T01:01:59.567Z,8.90
2019-04-16T01:02:59.560Z,9.50
2019-04-16T01:03:59.570Z,9.20
2019-04-16T01:04:59.538Z,10.00
2019-04-16T01:05:59.520Z,8.80
2019-04-16T01:06:59.509Z,8.90
2019-04-16T01:07:59.502Z,9.80
2019-04-16T01:08:59.515Z,9.10
2019-04-16T01:09:59.479Z,8.60
2019-04-16T01:10:59.469Z,8.90
2019-04-16T01:11:59.453Z,9.00
2019-04-16T01:12:59.443Z,9.10
2019-04-16T01:13:59.455Z,9.50
2019-04-16T01:15:00.928Z,9.50
2019-04-16T01:16:02.497Z,9.80
2019-04-16T01:17:03.899Z,8.70
2019-04-16T01:18:00.385Z,9.70
2019-04-16T01:18:59.397Z,9.50
2019-04-16T01:19:59.363Z,9.10
2019-04-16T01:20:59.367Z,9.20
2019-04-16T01:21:59.339Z,9.20
2019-04-16T01:22:59.329Z,8.80
2019-04-16T01:23:59.341Z,9.00
2019-04-16T01:24:59.307Z,9.20
2019-04-16T01:25:59.367Z,9.50
2019-04-16T01:26:59.495Z,9.40
2019-04-16T01:28:00.770Z,8.70
2019-04-16T01:29:02.929Z,9.20
2019-04-16T01:29:59.255Z,8.50
2019-04-16T01:30:59.240Z,9.00
2019-04-16T01:31:59.231Z,9.10
2019-04-16T01:32:59.224Z,9.00
2019-04-16T01:33:59.230Z,9.50
2019-04-16T01:34:59.199Z,9.40
2019-04-16T01:35:59.183Z,9.20
2019-04-16T01:36:59.182Z,9.40
2019-04-16T01:37:59.166Z,9.60
2019-04-16T01:39:14.986Z,9.60
2019-04-16T01:40:00.171Z,9.30
2019-04-16T01:40:59.127Z,9.60
2019-04-16T01:41:59.124Z,8.70
2019-04-16T01:42:59.104Z,9.30
2019-04-16T01:43:59.095Z,9.10
2019-04-16T01:45:00.556Z,9.70
2019-04-16T01:46:01.278Z,9.20
2019-04-16T01:47:03.372Z,8.70
2019-04-16T01:48:00.235Z,9.30
2019-04-16T01:48:59.038Z,9.40
2019-04-16T01:49:59.303Z,9.50
2019-04-16T01:50:59.094Z,9.20
2019-04-16T01:51:59.003Z,9.50
2019-04-16T01:52:58.991Z,9.70
2019-04-16T01:53:58.982Z,9.10
2019-04-16T01:54:58.993Z,9.50
2019-04-16T01:55:58.965Z,9.40
2019-04-16T01:57:00.001Z,9.80
2019-04-16T01:57:59.682Z,9.30
2019-04-16T01:58:58.930Z,10.20
2019-04-16T01:59:58.941Z,9.40
2019-04-16T02:00:58.903Z,10.00
2019-04-16T02:01:58.889Z,9.80
2019-04-16T02:02:58.877Z,9.60
2019-04-16T02:03:59.031Z,9.20
2019-04-16T02:04:59.011Z,9.70
2019-04-16T02:05:59.181Z,9.20
2019-04-16T02:06:59.044Z,9.10
2019-04-16T02:07:59.927Z,9.60
2019-04-16T02:09:01.872Z,9.00
2019-04-16T02:09:58.829Z,8.60
2019-04-16T02:10:58.785Z,9.40
2019-04-16T02:11:58.775Z,10.60
2019-04-16T02:12:58.768Z,10.10
2019-04-16T02:13:58.753Z,10.00
2019-04-16T02:14:58.780Z,9.90
2019-04-16T02:15:58.732Z,9.70
2019-04-16T02:16:58.717Z,10.00
2019-04-16T02:17:59.570Z,8.70
2019-04-16T02:19:01.310Z,9.40
2019-04-16T02:19:58.780Z,9.30
2019-04-16T02:20:58.696Z,9.50
2019-04-16T02:21:58.660Z,9.60
2019-04-16T02:22:58.649Z,9.60
2019-04-16T02:23:58.639Z,9.90
2019-04-16T02:24:58.637Z,9.30
2019-04-16T02:25:58.637Z,9.40
2019-04-16T02:26:58.604Z,9.10
2019-04-16T02:27:58.590Z,9.80
2019-04-16T02:28:59.070Z,9.90
2019-04-16T02:30:02.734Z,10.00
2019-04-16T02:30:59.584Z,10.30
2019-04-16T02:31:58.561Z,9.30
2019-04-16T02:32:58.534Z,10.40
2019-04-16T02:33:58.531Z,10.40
2019-04-16T02:34:58.510Z,9.90
2019-04-16T02:35:58.524Z,9.90
2019-04-16T02:37:02.198Z,10.20
2019-04-16T02:37:58.477Z,11.10
2019-04-16T02:38:58.466Z,10.40
2019-04-16T02:39:58.459Z,10.50
2019-04-16T02:40:58.467Z,10.50
2019-04-16T02:41:58.717Z,10.60
2019-04-16T02:43:04.182Z,11.20
2019-04-16T02:43:59.407Z,11.00
2019-04-16T02:44:58.395Z,10.30
2019-04-16T02:45:58.836Z,11.10
2019-04-16T02:47:05.327Z,10.70
2019-04-16T02:47:59.361Z,10.50
2019-04-16T02:48:58.351Z,10.40
2019-04-16T02:49:58.339Z,10.80
2019-04-16T02:51:05.273Z,10.10
2019-04-16T02:51:59.341Z,10.60
2019-04-16T02:52:58.331Z,11.00
2019-04-16T02:53:59.834Z,11.00
2019-04-16T02:54:58.314Z,10.80
2019-04-16T02:55:58.266Z,10.70
2019-04-16T02:56:58.280Z,10.10
2019-04-16T02:58:00.071Z,10.00
2019-04-16T02:58:58.239Z,10.50
2019-04-16T02:59:58.222Z,11.70
2019-04-16T03:00:58.212Z,10.90
2019-04-16T03:01:58.231Z,10.80
2019-04-16T03:02:58.186Z,10.00
2019-04-16T03:03:58.180Z,10.50
2019-04-16T03:04:58.952Z,10.40
2019-04-16T03:06:00.649Z,10.50
2019-04-16T03:07:02.723Z,11.10
2019-04-16T03:08:01.538Z,11.30
2019-04-16T03:08:59.127Z,11.00
2019-04-16T03:10:01.381Z,10.20
2019-04-16T03:10:58.096Z,10.10
2019-04-16T03:11:58.112Z,10.60
2019-04-16T03:12:58.083Z,10.30
2019-04-16T03:13:59.296Z,9.80
2019-04-16T03:15:00.847Z,9.60
2019-04-16T03:15:58.038Z,10.10
2019-04-16T03:16:58.033Z,9.80
2019-04-16T03:17:58.049Z,10.10
2019-04-16T03:18:58.007Z,9.90
2019-04-16T03:19:57.998Z,10.60
2019-04-16T03:20:57.990Z,10.00
2019-04-16T03:21:59.125Z,10.10
2019-04-16T03:22:57.982Z,10.10
2019-04-16T03:23:57.948Z,10.60
2019-04-16T03:24:57.937Z,10.70
2019-04-16T03:25:57.926Z,10.40
2019-04-16T03:26:57.917Z,10.30
2019-04-16T03:27:57.926Z,10.70
2019-04-16T03:28:59.110Z,13.60
2019-04-16T03:30:02.914Z,12.50
2019-04-16T03:30:58.872Z,11.50
2019-04-16T03:31:59.532Z,10.70
2019-04-16T03:32:57.877Z,10.20
2019-04-16T03:33:57.834Z,10.90
2019-04-16T03:34:57.832Z,10.90
2019-04-16T03:35:58.589Z,10.20
2019-04-16T03:36:58.601Z,10.80
2019-04-16T03:37:57.813Z,10.70
2019-04-16T03:38:57.784Z,9.70
2019-04-16T03:39:57.764Z,10.30
2019-04-16T03:40:57.753Z,9.40
2019-04-16T03:41:57.743Z,9.70
2019-04-16T03:42:59.353Z,10.00
2019-04-16T03:43:57.719Z,9.90
2019-04-16T03:44:57.716Z,10.00
2019-04-16T03:45:57.707Z,9.90
2019-04-16T03:46:57.685Z,10.10
2019-04-16T03:47:57.702Z,10.30
2019-04-16T03:48:57.664Z,9.90
2019-04-16T03:49:59.488Z,10.40
2019-04-16T03:51:00.440Z,9.80
2019-04-16T03:51:58.626Z,10.60
2019-04-16T03:52:57.639Z,9.80
2019-04-16T03:53:57.609Z,10.20
2019-04-16T03:54:57.595Z,10.30
2019-04-16T03:55:58.263Z,9.00
2019-04-16T03:57:01.805Z,10.30
2019-04-16T03:57:58.562Z,10.30
2019-04-16T03:58:57.571Z,9.80
2019-04-16T04:00:00.638Z,10.20
2019-04-16T04:00:57.527Z,9.90
2019-04-16T04:01:57.516Z,9.90
2019-04-16T04:02:57.513Z,10.30
2019-04-16T04:03:58.450Z,10.30
2019-04-16T04:05:00.826Z,10.30
2019-04-16T04:05:57.469Z,10.60
2019-04-16T04:06:57.460Z,9.80
2019-04-16T04:07:57.447Z,9.80
2019-04-16T04:08:57.460Z,10.30
2019-04-16T04:09:58.824Z,9.90
2019-04-16T04:10:57.415Z,10.00
2019-04-16T04:11:57.406Z,10.40
2019-04-16T04:12:57.390Z,10.40
2019-04-16T04:13:57.403Z,10.80
2019-04-16T04:14:57.371Z,10.10
2019-04-16T04:15:58.570Z,10.90
2019-04-16T04:16:57.454Z,10.70
2019-04-16T04:17:57.334Z,10.40
2019-04-16T04:18:57.366Z,10.00
2019-04-16T04:19:57.313Z,10.10
2019-04-16T04:20:57.304Z,9.40
2019-04-16T04:21:57.293Z,11.20
2019-04-16T04:22:57.910Z,10.70
2019-04-16T04:23:59.723Z,10.00
2019-04-16T04:24:57.281Z,10.00
2019-04-16T04:25:57.246Z,10.70
2019-04-16T04:26:57.237Z,10.90
2019-04-16T04:27:57.226Z,10.50
2019-04-16T04:28:57.210Z,9.90
2019-04-16T04:29:57.434Z,10.10
2019-04-16T04:30:57.641Z,10.60
2019-04-16T04:31:57.178Z,10.60
2019-04-16T04:32:57.166Z,11.00
2019-04-16T04:33:57.158Z,10.50
2019-04-16T04:34:57.170Z,12.00
2019-04-16T04:35:57.142Z,11.00
2019-04-16T04:36:59.677Z,10.40
2019-04-16T04:37:57.110Z,10.20
2019-04-16T04:38:57.106Z,10.90
2019-04-16T04:39:57.143Z,11.10
2019-04-16T04:40:59.710Z,10.40
2019-04-16T04:41:57.273Z,10.60
2019-04-16T04:42:57.662Z,10.10
2019-04-16T04:43:57.049Z,10.70
2019-04-16T04:44:57.058Z,10.50
2019-04-16T04:45:57.026Z,10.20
2019-04-16T04:46:57.015Z,10.20
2019-04-16T04:47:57.006Z,10.60
2019-04-16T04:49:00.060Z,10.50
2019-04-16T04:50:02.893Z,11.30
2019-04-16T04:50:57.964Z,10.00
2019-04-16T04:51:56.958Z,11.10
2019-04-16T04:52:56.956Z,11.10
2019-04-16T04:53:56.935Z,10.50
2019-04-16T04:54:56.948Z,10.90
2019-04-16T04:55:57.267Z,10.20
2019-04-16T04:56:59.323Z,10.60
2019-04-16T04:57:56.892Z,10.40
2019-04-16T04:58:56.883Z,11.30
2019-04-16T04:59:56.898Z,10.60
2019-04-16T05:00:56.857Z,10.00
2019-04-16T05:01:56.845Z,11.00
2019-04-16T05:02:56.837Z,10.70
2019-04-16T05:03:56.820Z,11.00
2019-04-16T05:04:56.834Z,10.70
2019-04-16T05:05:56.799Z,11.70
2019-04-16T05:06:57.218Z,10.60
2019-04-16T05:07:59.727Z,10.80
2019-04-16T05:08:57.558Z,11.40
2019-04-16T05:09:56.767Z,10.80
2019-04-16T05:10:59.793Z,10.80
2019-04-16T05:11:57.738Z,10.90
2019-04-16T05:12:56.728Z,10.30
2019-04-16T05:13:57.107Z,10.90
2019-04-16T05:14:58.672Z,11.40
2019-04-16T05:15:58.401Z,10.50
2019-04-16T05:16:56.685Z,10.70
2019-04-16T05:17:56.669Z,11.20
2019-04-16T05:18:56.656Z,11.30
2019-04-16T05:19:56.641Z,11.40
2019-04-16T05:20:56.676Z,11.00
2019-04-16T05:21:56.622Z,11.00
2019-04-16T05:22:58.105Z,11.60
2019-04-16T05:23:57.600Z,11.40
2019-04-16T05:25:01.045Z,11.00
2019-04-16T05:25:56.597Z,10.70
2019-04-16T05:26:56.589Z,10.70
2019-04-16T05:27:56.555Z,11.30
2019-04-16T05:28:56.554Z,9.90
2019-04-16T05:29:56.543Z,11.30
2019-04-16T05:30:56.545Z,10.90
2019-04-16T05:31:57.262Z,10.80
2019-04-16T05:32:56.498Z,10.70
2019-04-16T05:34:00.636Z,11.30
2019-04-16T05:34:57.477Z,11.10
2019-04-16T05:35:59.331Z,11.30
2019-04-16T05:36:56.475Z,11.20
2019-04-16T05:37:56.442Z,11.60
2019-04-16T05:38:56.535Z,10.10
2019-04-16T05:39:58.803Z,12.00
2019-04-16T05:40:56.451Z,11.60
2019-04-16T05:41:56.400Z,12.00
2019-04-16T05:42:59.018Z,12.00
2019-04-16T05:43:58.494Z,12.00
2019-04-16T05:44:56.374Z,12.50
2019-04-16T05:45:56.354Z,12.90
2019-04-16T05:46:56.367Z,12.40
2019-04-16T05:47:56.344Z,12.60
2019-04-16T05:48:56.337Z,11.80
2019-04-16T05:49:57.959Z,12.30
2019-04-16T05:50:59.750Z,12.00
2019-04-16T05:51:56.316Z,12.80
2019-04-16T05:52:56.288Z,11.80
2019-04-16T05:53:56.273Z,12.20
2019-04-16T05:54:56.258Z,12.30
2019-04-16T05:55:57.519Z,12.40
2019-04-16T05:56:56.258Z,11.40
2019-04-16T05:57:58.192Z,11.80
2019-04-16T05:58:56.212Z,12.90
2019-04-16T05:59:56.204Z,12.50
2019-04-16T06:00:56.198Z,12.00
2019-04-16T06:01:57.470Z,12.20
2019-04-16T06:02:56.193Z,12.70
2019-04-16T06:03:56.159Z,12.80
2019-04-16T06:04:56.564Z,12.30
2019-04-16T06:05:56.290Z,12.70
2019-04-16T06:06:56.129Z,12.40
2019-04-16T06:07:56.136Z,12.40
2019-04-16T06:08:56.216Z,12.10
2019-04-16T06:09:56.091Z,12.40
2019-04-16T06:10:57.653Z,11.80
2019-04-16T06:11:56.065Z,11.90
2019-04-16T06:12:56.087Z,12.00
2019-04-16T06:13:56.046Z,12.00
2019-04-16T06:14:56.074Z,12.20
2019-04-16T06:15:56.025Z,11.80
2019-04-16T06:16:56.747Z,12.20
2019-04-16T06:17:56.020Z,12.10
2019-04-16T06:18:56.087Z,12.00
2019-04-16T06:19:55.979Z,11.90
2019-04-16T06:20:55.964Z,12.70
2019-04-16T06:21:56.668Z,12.70
2019-04-16T06:23:00.650Z,12.80
2019-04-16T06:23:56.933Z,12.70
2019-04-16T06:24:55.914Z,12.30
2019-04-16T06:25:55.902Z,12.80
2019-04-16T06:26:55.912Z,12.70
2019-04-16T06:27:55.905Z,12.30
2019-04-16T06:28:59.711Z,11.70
2019-04-16T06:30:00.797Z,12.00
2019-04-16T06:30:56.848Z,12.90
2019-04-16T06:31:55.836Z,12.80
2019-04-16T06:32:55.851Z,11.80
2019-04-16T06:33:55.814Z,12.20
2019-04-16T06:34:55.817Z,11.80
2019-04-16T06:35:55.793Z,12.10
2019-04-16T06:36:55.778Z,12.20
2019-04-16T06:37:55.774Z,12.30
2019-04-16T06:38:57.792Z,11.90
2019-04-16T06:40:00.700Z,11.60
2019-04-16T06:40:56.742Z,11.90
2019-04-16T06:41:55.723Z,11.40
2019-04-16T06:42:55.717Z,11.40
2019-04-16T06:43:59.549Z,10.90
2019-04-16T06:44:55.694Z,11.30
2019-04-16T06:45:55.678Z,11.50
2019-04-16T06:46:55.670Z,11.20
2019-04-16T06:47:55.657Z,11.30
2019-04-16T06:48:55.667Z,10.80
2019-04-16T06:49:55.633Z,10.90
2019-04-16T06:50:55.622Z,11.20
2019-04-16T06:51:55.613Z,11.30
2019-04-16T06:52:55.614Z,11.00
2019-04-16T06:53:56.861Z,10.50
2019-04-16T06:54:55.583Z,11.10
2019-04-16T06:55:55.567Z,10.00
2019-04-16T06:56:55.558Z,11.50
2019-04-16T06:57:55.566Z,10.60
2019-04-16T06:58:57.482Z,10.40
2019-04-16T06:59:55.546Z,11.20
2019-04-16T07:00:55.514Z,10.60
2019-04-16T07:01:55.513Z,10.90
2019-04-16T07:03:02.197Z,10.70
2019-04-16T07:03:59.667Z,10.50
2019-04-16T07:04:58.328Z,11.00
2019-04-16T07:05:56.452Z,11.60
2019-04-16T07:06:55.440Z,9.50
2019-04-16T07:07:55.431Z,11.00
2019-04-16T07:08:55.422Z,10.40
2019-04-16T07:09:56.974Z,11.10
2019-04-16T07:10:55.397Z,11.30
2019-04-16T07:11:55.395Z,10.80
2019-04-16T07:12:55.422Z,10.20
2019-04-16T07:13:55.365Z,10.70
2019-04-16T07:14:55.376Z,11.40
2019-04-16T07:15:56.961Z,10.60
2019-04-16T07:16:59.763Z,11.50
2019-04-16T07:17:56.315Z,11.70
2019-04-16T07:18:55.306Z,11.90
2019-04-16T07:19:55.322Z,11.70
2019-04-16T07:20:55.286Z,10.60
2019-04-16T07:21:55.306Z,11.00
2019-04-16T07:22:55.262Z,11.40
2019-04-16T07:23:57.979Z,11.30
2019-04-16T07:24:55.363Z,10.70
2019-04-16T07:25:55.231Z,11.50
2019-04-16T07:26:56.635Z,10.40
2019-04-16T07:27:58.065Z,11.80
2019-04-16T07:28:58.572Z,11.20
2019-04-16T07:29:55.370Z,11.50
2019-04-16T07:30:55.805Z,11.30
2019-04-16T07:31:55.168Z,11.00
2019-04-16T07:32:55.167Z,10.60
2019-04-16T07:33:55.146Z,11.10
2019-04-16T07:34:55.132Z,11.10
2019-04-16T07:35:55.145Z,10.50
2019-04-16T07:36:59.902Z,11.50
2019-04-16T07:37:56.315Z,11.40
2019-04-16T07:38:55.080Z,10.50
2019-04-16T07:39:55.073Z,10.90
2019-04-16T07:40:55.083Z,10.90
2019-04-16T07:42:08.638Z,10.80
2019-04-16T07:42:58.980Z,10.80
2019-04-16T07:43:55.192Z,10.80
2019-04-16T07:44:55.952Z,11.10
2019-04-16T07:45:55.142Z,11.70
2019-04-16T07:46:54.990Z,11.60
2019-04-16T07:47:54.983Z,10.80
2019-04-16T07:48:55.670Z,11.00
2019-04-16T07:49:55.910Z,10.80
2019-04-16T07:50:54.971Z,10.90
2019-04-16T07:51:54.940Z,11.50
2019-04-16T07:52:54.946Z,10.90
2019-04-16T07:53:54.928Z,10.30
2019-04-16T07:54:54.899Z,11.00
2019-04-16T07:55:54.911Z,10.40
2019-04-16T07:56:54.878Z,10.60
2019-04-16T07:57:54.867Z,10.60
2019-04-16T07:59:00.040Z,10.70
2019-04-16T07:59:55.849Z,10.60
2019-04-16T08:00:54.855Z,11.40
2019-04-16T08:01:54.840Z,10.80
2019-04-16T08:02:54.829Z,11.30
2019-04-16T08:03:57.455Z,10.80
2019-04-16T08:04:55.799Z,11.10
2019-04-16T08:05:54.799Z,11.70
2019-04-16T08:06:54.763Z,10.80
2019-04-16T08:07:54.754Z,10.10
2019-04-16T08:08:57.150Z,11.10
2019-04-16T08:09:54.742Z,11.20
2019-04-16T08:10:54.731Z,11.00
2019-04-16T08:11:54.733Z,10.90
2019-04-16T08:12:56.887Z,10.80
2019-04-16T08:13:55.686Z,11.40
2019-04-16T08:14:54.674Z,11.10
2019-04-16T08:15:56.735Z,10.80
2019-04-16T08:16:54.667Z,12.60
2019-04-16T08:17:54.641Z,11.20
2019-04-16T08:18:54.633Z,11.70
2019-04-16T08:19:55.543Z,11.90
2019-04-16T08:21:02.375Z,11.10
2019-04-16T08:21:55.866Z,11.50
2019-04-16T08:22:54.586Z,11.30
2019-04-16T08:23:54.574Z,10.90
2019-04-16T08:24:59.631Z,11.40
2019-04-16T08:26:02.349Z,10.80
2019-04-16T08:26:55.619Z,11.30
2019-04-16T08:27:55.030Z,11.20
2019-04-16T08:28:54.540Z,11.40
2019-04-16T08:29:54.506Z,11.20
2019-04-16T08:30:54.496Z,10.90
2019-04-16T08:31:54.505Z,10.90
2019-04-16T08:32:54.471Z,11.40
2019-04-16T08:33:54.460Z,11.30
2019-04-16T08:34:54.453Z,11.50
2019-04-16T08:35:54.437Z,11.30
2019-04-16T08:36:54.448Z,11.70
2019-04-16T08:37:57.800Z,11.30
2019-04-16T08:38:54.403Z,12.70
2019-04-16T08:39:54.390Z,11.70
2019-04-16T08:40:54.394Z,12.80
2019-04-16T08:41:54.389Z,11.30
2019-04-16T08:42:56.956Z,12.50
2019-04-16T08:43:54.343Z,12.60
2019-04-16T08:44:54.335Z,12.20
2019-04-16T08:45:54.323Z,11.50
2019-04-16T08:46:54.365Z,11.30
2019-04-16T08:47:54.300Z,11.90
2019-04-16T08:48:54.662Z,11.00
2019-04-16T08:49:54.962Z,11.70
2019-04-16T08:50:57.943Z,11.00
2019-04-16T08:51:54.295Z,10.90
2019-04-16T08:52:54.307Z,11.90
2019-04-16T08:53:54.234Z,11.30
2019-04-16T08:54:55.006Z,11.80
2019-04-16T08:55:54.234Z,11.20
2019-04-16T08:56:54.224Z,11.60
2019-04-16T08:57:54.266Z,11.60
2019-04-16T08:58:58.390Z,11.90
2019-04-16T08:59:55.168Z,11.20
2019-04-16T09:00:54.164Z,11.30
2019-04-16T09:01:55.135Z,11.40
2019-04-16T09:02:57.821Z,11.90
2019-04-16T09:03:54.122Z,11.60
2019-04-16T09:04:54.111Z,11.60
2019-04-16T09:05:54.098Z,10.80
2019-04-16T09:06:54.196Z,10.60
2019-04-16T09:07:54.072Z,11.70
2019-04-16T09:08:54.061Z,12.30
2019-04-16T09:09:57.038Z,11.70
2019-04-16T09:10:54.039Z,11.80
2019-04-16T09:11:54.052Z,11.50
2019-04-16T09:13:03.283Z,11.70
2019-04-16T09:13:55.018Z,12.00
2019-04-16T09:14:55.964Z,11.90
2019-04-16T09:15:53.981Z,11.40
2019-04-16T09:16:53.975Z,11.00
2019-04-16T09:17:53.985Z,11.70
2019-04-16T09:18:53.952Z,11.30
2019-04-16T09:19:53.937Z,10.70
2019-04-16T09:20:53.925Z,11.20
2019-04-16T09:21:53.919Z,11.20
2019-04-16T09:22:54.670Z,11.10
2019-04-16T09:23:56.264Z,10.80
2019-04-16T09:24:54.912Z,11.50
2019-04-16T09:25:53.916Z,12.20
2019-04-16T09:26:55.724Z,11.90
2019-04-16T09:27:53.875Z,12.00
2019-04-16T09:28:53.843Z,12.10
2019-04-16T09:29:53.824Z,12.60
2019-04-16T09:30:53.832Z,12.10
2019-04-16T09:31:55.435Z,11.90
2019-04-16T09:32:53.831Z,12.10
2019-04-16T09:33:57.108Z,11.90
2019-04-16T09:35:07.488Z,12.00
2019-04-16T09:35:54.757Z,12.30
2019-04-16T09:36:53.746Z,12.40
2019-04-16T09:37:53.931Z,11.90
2019-04-16T09:38:53.747Z,11.70
2019-04-16T09:39:53.714Z,12.80
2019-04-16T09:40:53.699Z,12.40
2019-04-16T09:41:53.709Z,12.30
2019-04-16T09:42:53.683Z,11.80
2019-04-16T09:43:57.042Z,11.90
2019-04-16T09:44:53.652Z,12.60
2019-04-16T09:45:53.642Z,12.10
2019-04-16T09:46:53.661Z,12.80
2019-04-16T09:47:53.622Z,12.30
2019-04-16T09:48:53.631Z,12.10
2019-04-16T09:49:53.599Z,12.50
2019-04-16T09:50:53.590Z,12.70
2019-04-16T09:51:53.574Z,13.50
2019-04-16T09:52:55.484Z,13.40
2019-04-16T09:53:53.621Z,12.60
2019-04-16T09:54:53.546Z,13.30
2019-04-16T09:55:53.530Z,12.70
2019-04-16T09:56:53.521Z,12.30
2019-04-16T09:57:53.508Z,13.00
2019-04-16T09:58:53.521Z,12.50
2019-04-16T09:59:53.482Z,12.40
2019-04-16T10:00:53.474Z,12.40
2019-04-16T10:01:53.681Z,13.70
2019-04-16T10:02:55.111Z,13.60
2019-04-16T10:03:53.851Z,13.20
2019-04-16T10:04:53.425Z,13.40
2019-04-16T10:05:53.439Z,12.70
2019-04-16T10:06:53.406Z,13.40
2019-04-16T10:07:53.405Z,13.50
2019-04-16T10:08:56.472Z,13.80
2019-04-16T10:09:54.515Z,14.00
2019-04-16T10:10:53.376Z,24.60
2019-04-16T10:11:53.422Z,16.50
2019-04-16T10:12:53.339Z,13.70
2019-04-16T10:13:53.338Z,13.40
2019-04-16T10:14:53.361Z,13.60
2019-04-16T10:15:55.687Z,14.40
2019-04-16T10:16:53.298Z,13.90
2019-04-16T10:17:53.278Z,13.10
2019-04-16T10:18:53.288Z,13.30
2019-04-16T10:19:53.321Z,14.00
2019-04-16T10:20:53.246Z,14.90
2019-04-16T10:21:54.342Z,14.20
2019-04-16T10:22:53.278Z,13.70
2019-04-16T10:23:53.213Z,13.90
2019-04-16T10:24:53.227Z,13.30
2019-04-16T10:25:53.210Z,13.10
2019-04-16T10:26:53.207Z,14.20
2019-04-16T10:27:53.169Z,15.10
2019-04-16T10:28:53.169Z,14.20
2019-04-16T10:29:53.226Z,13.30
2019-04-16T10:30:53.159Z,13.90
2019-04-16T10:31:53.144Z,14.10
2019-04-16T10:32:53.119Z,14.10
2019-04-16T10:33:53.118Z,14.80
2019-04-16T10:34:53.143Z,14.10
2019-04-16T10:35:53.102Z,14.00
2019-04-16T10:36:53.064Z,14.90
2019-04-16T10:37:53.084Z,14.40
2019-04-16T10:38:53.064Z,14.90
2019-04-16T10:39:53.068Z,14.80
2019-04-16T10:40:53.021Z,14.30
2019-04-16T10:41:56.185Z,14.10
2019-04-16T10:42:53.034Z,13.70
2019-04-16T10:43:52.989Z,13.80
2019-04-16T10:44:53.018Z,14.30
2019-04-16T10:45:52.974Z,14.60
2019-04-16T10:46:52.972Z,14.70
2019-04-16T10:47:53.193Z,14.40
2019-04-16T10:48:52.929Z,14.40
2019-04-16T10:49:52.927Z,14.90
2019-04-16T10:50:53.262Z,15.00
2019-04-16T10:51:52.918Z,14.50
2019-04-16T10:52:55.678Z,14.40
2019-04-16T10:53:52.884Z,15.00
2019-04-16T10:54:52.874Z,15.30
2019-04-16T10:55:52.887Z,13.90
2019-04-16T10:56:56.834Z,14.10
2019-04-16T10:57:52.926Z,14.10
2019-04-16T10:58:52.946Z,14.30
2019-04-16T10:59:52.829Z,18.40
2019-04-16T11:00:52.823Z,14.80
2019-04-16T11:01:52.789Z,14.40
2019-04-16T11:02:52.794Z,14.60
2019-04-16T11:03:52.760Z,14.90
2019-04-16T11:04:52.782Z,14.50
2019-04-16T11:05:56.861Z,15.10
2019-04-16T11:06:52.794Z,14.40
2019-04-16T11:07:52.807Z,14.50
2019-04-16T11:08:52.715Z,13.80
2019-04-16T11:09:52.709Z,13.90
2019-04-16T11:10:52.746Z,14.20
2019-04-16T11:11:52.675Z,13.80
2019-04-16T11:12:52.682Z,15.70
2019-04-16T11:13:59.987Z,13.40
2019-04-16T11:14:53.650Z,12.80
2019-04-16T11:15:52.672Z,13.40
2019-04-16T11:16:52.649Z,13.40
2019-04-16T11:17:52.715Z,13.60
2019-04-16T11:18:54.968Z,12.70
2019-04-16T11:19:54.221Z,13.20
2019-04-16T11:20:52.608Z,12.80
2019-04-16T11:21:52.593Z,13.00
2019-04-16T11:22:52.577Z,13.00
2019-04-16T11:23:52.564Z,14.20
2019-04-16T11:24:52.529Z,14.00
2019-04-16T11:25:52.523Z,13.30
2019-04-16T11:26:52.541Z,14.60
2019-04-16T11:27:52.498Z,14.00
2019-04-16T11:28:52.487Z,14.40
2019-04-16T11:29:52.471Z,13.60
2019-04-16T11:30:52.494Z,13.50
2019-04-16T11:31:52.493Z,13.40
2019-04-16T11:32:53.446Z,12.50
2019-04-16T11:33:52.442Z,12.50
2019-04-16T11:34:52.421Z,13.20
2019-04-16T11:35:53.039Z,13.00
2019-04-16T11:36:52.440Z,13.30
2019-04-16T11:37:52.442Z,12.90
2019-04-16T11:38:52.369Z,13.30
2019-04-16T11:39:52.386Z,13.30
2019-04-16T11:40:52.352Z,14.40
2019-04-16T11:41:52.375Z,13.90
2019-04-16T11:42:52.329Z,13.80
2019-04-16T11:43:52.317Z,13.30
2019-04-16T11:44:52.335Z,13.70
2019-04-16T11:45:52.329Z,12.90
2019-04-16T11:46:52.336Z,13.60
2019-04-16T11:47:52.265Z,13.30
2019-04-16T11:48:52.279Z,12.20
2019-04-16T11:49:52.248Z,12.30
2019-04-16T11:50:52.234Z,11.70
2019-04-16T11:51:52.252Z,13.00
2019-04-16T11:52:57.205Z,13.50
2019-04-16T11:53:54.073Z,11.70
2019-04-16T11:54:52.245Z,12.90
2019-04-16T11:55:52.176Z,12.10
2019-04-16T11:56:52.224Z,12.30
2019-04-16T11:57:52.203Z,12.90
2019-04-16T11:58:52.142Z,10.30
2019-04-16T12:00:06.092Z,13.30
2019-04-16T12:00:53.143Z,13.10
2019-04-16T12:01:52.113Z,13.10
2019-04-16T12:02:52.161Z,13.50
2019-04-16T12:03:55.836Z,13.30
2019-04-16T12:04:55.929Z,13.00
2019-04-16T12:05:53.064Z,13.80
2019-04-16T12:06:52.131Z,12.60
2019-04-16T12:07:52.073Z,13.70
2019-04-16T12:08:52.031Z,12.50
2019-04-16T12:09:52.052Z,12.20
2019-04-16T12:10:52.066Z,13.10
2019-04-16T12:11:52.041Z,12.00
2019-04-16T12:12:52.047Z,12.90
2019-04-16T12:13:51.999Z,12.40
2019-04-16T12:14:51.997Z,12.00
2019-04-16T12:15:52.001Z,11.90
2019-04-16T12:16:51.941Z,12.70
2019-04-16T12:17:51.954Z,12.40
2019-04-16T12:18:51.980Z,11.70
2019-04-16T12:19:51.909Z,11.80
2019-04-16T12:20:51.918Z,11.80
2019-04-16T12:21:51.886Z,13.00
2019-04-16T12:22:51.941Z,12.10
2019-04-16T12:23:51.865Z,12.20
2019-04-16T12:24:51.856Z,11.60
2019-04-16T12:25:51.893Z,12.10
2019-04-16T12:26:51.829Z,11.30
2019-04-16T12:27:51.885Z,11.40
2019-04-16T12:28:51.831Z,11.40
2019-04-16T12:29:51.869Z,11.20
2019-04-16T12:30:51.786Z,11.40
2019-04-16T12:31:51.817Z,11.00
2019-04-16T12:32:51.806Z,11.60
2019-04-16T12:33:51.792Z,11.80
2019-04-16T12:34:51.782Z,11.40
2019-04-16T12:35:51.733Z,11.10
2019-04-16T12:36:51.721Z,10.60
2019-04-16T12:37:51.745Z,11.50
2019-04-16T12:38:51.761Z,10.80
2019-04-16T12:39:51.698Z,10.70
2019-04-16T12:40:51.739Z,10.00
2019-04-16T12:41:51.697Z,11.00
2019-04-16T12:42:51.695Z,10.20
2019-04-16T12:43:51.815Z,9.10
2019-04-16T12:44:51.684Z,9.90
2019-04-16T12:45:53.560Z,10.10
2019-04-16T12:46:51.648Z,10.00
2019-04-16T12:47:51.593Z,9.70
2019-04-16T12:48:51.608Z,10.40
2019-04-16T12:49:51.570Z,9.60
2019-04-16T12:50:51.563Z,9.80
2019-04-16T12:51:51.601Z,10.10
2019-04-16T12:52:51.913Z,10.00
2019-04-16T12:53:53.397Z,9.90
2019-04-16T12:54:51.517Z,9.70
2019-04-16T12:55:51.524Z,9.60
2019-04-16T12:56:51.581Z,10.30
2019-04-16T12:57:51.504Z,9.90